Time;durP1;ratioP1;P1;durP2;ratioP2;P2;SDS_P1;SDS_P2;PMS_P1;PMS_P2;Temp;Humidity;BMP_temperature;BMP_pressure;BME280_temperature;BME280_humidity;BME280_pressure;Samples;Min_cycle;Max_cycle;Signal;HPM_P1;HPM_P2
2021/12/07 00:02:36;;;;;;;12.03;8.17;;;12.50;99.90;;;;;;10159264;29;20716;-90
2021/12/07 00:07:42;;;;;;;12.10;8.47;;;12.30;99.90;;;;;;10163923;29;20402;-89
2021/12/07 00:12:46;;;;;;;11.70;7.83;;;12.30;99.90;;;;;;10133060;29;20234;-88
2021/12/07 00:17:48;;;;;;;14.57;8.93;;;12.10;99.60;;;;;;10145376;29;20278;-90
2021/12/07 00:22:55;;;;;;;10.03;7.17;;;12.20;97.40;;;;;;10183742;29;20941;-89
2021/12/07 00:27:58;;;;;;;11.77;7.47;;;11.80;99.90;;;;;;10228259;29;20268;-89
2021/12/07 00:38:21;;;;;;;16.73;9.50;;;12.30;99.90;;;;;;10227155;29;20306;-89
2021/12/07 00:43:26;;;;;;;10.47;7.03;;;12.20;94.60;;;;;;10244893;29;20650;-89
2021/12/07 00:48:29;;;;;;;12.00;7.83;;;12.30;99.60;;;;;;10244758;29;20243;-89
2021/12/07 00:53:32;;;;;;;7.87;6.90;;;12.40;99.40;;;;;;10244152;29;20314;-89
2021/12/07 00:58:36;;;;;;;8.80;7.17;;;12.30;99.30;;;;;;10222656;29;20241;-89
2021/12/07 01:03:39;;;;;;;12.87;8.13;;;12.20;99.70;;;;;;10225671;29;20291;-89
2021/12/07 01:09:09;;;;;;;11.77;6.73;;;12.70;98.60;;;;;;10227523;29;20248;-89
2021/12/07 01:24:56;;;;;;;9.03;6.33;;;11.80;98.20;;;;;;10255562;29;20232;-89
2021/12/07 01:30:08;;;;;;;7.67;6.33;;;12.50;98.50;;;;;;10198794;29;20235;-90
2021/12/07 01:35:38;;;;;;;10.27;6.63;;;12.30;98.80;;;;;;10210200;29;20251;-89
2021/12/07 01:40:52;;;;;;;9.17;6.47;;;12.20;98.50;;;;;;10248165;28;20274;-89
2021/12/07 01:46:12;;;;;;;9.73;6.77;;;12.50;96.00;;;;;;10249567;29;20325;-89
2021/12/07 02:01:54;;;;;;;9.43;6.10;;;12.00;98.10;;;;;;10214058;29;20755;-89
2021/12/07 02:06:57;;;;;;;8.17;5.67;;;12.10;98.50;;;;;;10221058;29;20276;-89
2021/12/07 02:12:02;;;;;;;6.87;5.43;;;12.10;97.90;;;;;;10233303;29;20319;-89
2021/12/07 02:17:10;;;;;;;8.20;5.67;;;12.30;98.20;;;;;;10250165;29;20250;-89
2021/12/07 02:22:17;;;;;;;9.87;6.13;;;12.40;96.30;;;;;;10209555;29;20244;-88
2021/12/07 02:27:24;;;;;;;6.50;5.57;;;12.30;98.00;;;;;;10229896;29;20287;-89
2021/12/07 02:32:27;;;;;;;8.60;6.73;;;12.30;98.10;;;;;;10219766;29;20693;-89
2021/12/07 02:37:35;;;;;;;7.53;5.13;;;12.10;95.90;;;;;;10216030;29;20238;-89
2021/12/07 02:42:39;;;;;;;7.90;5.60;;;12.10;97.90;;;;;;10222881;29;20248;-89
2021/12/07 02:47:42;;;;;;;9.60;6.33;;;12.30;97.60;;;;;;10230688;28;20303;-88
2021/12/07 02:52:45;;;;;;;7.50;5.80;;;12.20;96.80;;;;;;10215744;29;20673;-89
2021/12/07 02:57:49;;;;;;;9.07;6.03;;;12.00;98.10;;;;;;10214985;29;20896;-88
2021/12/07 03:03:02;;;;;;;6.83;5.50;;;12.30;97.30;;;;;;10231744;29;20256;-89
2021/12/07 03:08:49;;;;;;;9.30;5.83;;;12.30;96.80;;;;;;10247828;29;20627;-89
2021/12/07 03:29:44;;;;;;;9.23;6.20;;;12.50;96.60;;;;;;10190722;29;20258;-88
2021/12/07 03:34:47;;;;;;;8.40;5.40;;;12.50;92.10;;;;;;10204220;29;20669;-89
2021/12/07 03:39:50;;;;;;;8.27;5.33;;;12.40;96.60;;;;;;10206865;29;20272;-89
2021/12/07 03:44:53;;;;;;;9.60;6.83;;;12.00;97.00;;;;;;10207504;29;20271;-89
2021/12/07 03:49:55;;;;;;;7.03;5.37;;;12.00;92.30;;;;;;10223119;29;20241;-89
2021/12/07 03:54:59;;;;;;;7.23;5.00;;;12.10;97.20;;;;;;10190262;29;20296;-89
2021/12/07 04:00:07;;;;;;;7.03;5.30;;;12.20;96.80;;;;;;10226241;28;20663;-88
2021/12/07 04:05:18;;;;;;;8.33;5.33;;;12.10;96.80;;;;;;10243697;29;20267;-88
2021/12/07 04:10:25;;;;;;;6.57;4.93;;;12.00;97.20;;;;;;10229611;29;20255;-88
2021/12/07 04:15:28;;;;;;;5.47;4.37;;;12.10;97.10;;;;;;10244260;29;20373;-89
2021/12/07 04:20:31;;;;;;;7.37;5.30;;;11.90;97.30;;;;;;10222886;28;20244;-89
2021/12/07 04:25:34;;;;;;;5.03;4.20;;;11.80;97.20;;;;;;10242116;28;20324;-89
2021/12/07 04:30:40;;;;;;;5.93;5.10;;;11.80;97.90;;;;;;10262727;28;20251;-88
2021/12/07 04:35:47;;;;;;;8.00;5.17;;;11.90;97.50;;;;;;10245526;29;20248;-88
2021/12/07 04:40:49;;;;;;;6.00;4.80;;;12.00;97.30;;;;;;10229270;29;20247;-89
2021/12/07 04:46:11;;;;;;;7.03;5.07;;;11.80;97.20;;;;;;10227789;29;20331;-88
2021/12/07 05:01:57;;;;;;;9.07;5.50;;;11.90;96.90;;;;;;10187929;29;20285;-83
2021/12/07 05:07:13;;;;;;;8.67;6.70;;;11.90;96.90;;;;;;10205761;29;20262;-83
2021/12/07 05:38:33;;;;;;;10.80;7.13;;;11.90;96.50;;;;;;10250485;29;20686;-83
2021/12/07 05:43:36;;;;;;;10.57;7.00;;;11.80;96.80;;;;;;10250004;29;20324;-83
2021/12/07 05:48:39;;;;;;;9.73;6.77;;;11.70;96.70;;;;;;10241793;28;20753;-82
2021/12/07 05:53:41;;;;;;;12.23;7.80;;;11.90;96.60;;;;;;10227094;28;21016;-83
2021/12/07 05:58:44;;;;;;;9.67;6.83;;;11.80;96.60;;;;;;10210833;29;20279;-83
2021/12/07 06:03:46;;;;;;;10.57;7.23;;;11.80;96.50;;;;;;10214305;28;20302;-82
2021/12/07 06:08:49;;;;;;;9.70;7.00;;;11.80;96.50;;;;;;10214882;28;20230;-83
2021/12/07 06:13:52;;;;;;;8.87;6.60;;;11.90;96.30;;;;;;10233697;28;20283;-82
2021/12/07 06:18:55;;;;;;;9.87;7.23;;;11.90;96.20;;;;;;10246769;28;20270;-82
2021/12/07 06:23:57;;;;;;;10.37;7.20;;;11.90;96.00;;;;;;10226181;29;20295;-82
2021/12/07 06:29:00;;;;;;;11.00;7.53;;;11.90;95.90;;;;;;10196547;29;20320;-82
2021/12/07 06:34:03;;;;;;;9.03;6.97;;;12.00;95.80;;;;;;10207511;29;20294;-81
2021/12/07 06:39:07;;;;;;;9.27;7.10;;;12.00;95.60;;;;;;10186975;29;20612;-82
2021/12/07 06:44:09;;;;;;;10.80;7.50;;;12.10;95.30;;;;;;10230207;29;20315;-82
2021/12/07 06:49:12;;;;;;;8.50;6.80;;;12.30;95.00;;;;;;10244704;29;20741;-82
2021/12/07 06:54:14;;;;;;;10.80;7.00;;;12.30;94.70;;;;;;10240530;29;20285;-81
2021/12/07 06:59:18;;;;;;;9.33;7.17;;;12.50;94.50;;;;;;10236194;28;20236;-83
2021/12/07 07:04:20;;;;;;;12.37;7.43;;;12.40;94.30;;;;;;10211467;28;20761;-83
2021/12/07 07:09:23;;;;;;;9.17;7.27;;;12.30;94.60;;;;;;10234093;28;21106;-83
2021/12/07 07:14:25;;;;;;;7.97;6.27;;;12.10;94.80;;;;;;10242244;28;20429;-83
2021/12/07 07:19:28;;;;;;;10.23;6.93;;;12.10;94.90;;;;;;10249105;28;20686;-84
2021/12/07 07:24:32;;;;;;;10.77;7.13;;;12.00;95.00;;;;;;10262488;28;20261;-85
2021/12/07 07:29:35;;;;;;;9.70;6.90;;;12.10;94.70;;;;;;10246037;28;20274;-84
2021/12/07 07:34:37;;;;;;;8.63;5.93;;;12.10;94.80;;;;;;10218347;28;20818;-84
2021/12/07 07:39:41;;;;;;;9.67;6.90;;;12.20;94.50;;;;;;10218070;29;20266;-84
2021/12/07 07:44:43;;;;;;;10.17;7.10;;;12.30;94.30;;;;;;10208465;29;20708;-84
2021/12/07 07:49:46;;;;;;;9.10;6.53;;;12.20;94.00;;;;;;10227067;29;20243;-84
2021/12/07 07:54:49;;;;;;;10.10;7.13;;;12.30;94.20;;;;;;10217209;29;20273;-84
2021/12/07 07:59:52;;;;;;;11.23;7.03;;;12.20;94.10;;;;;;10244076;28;20668;-84
2021/12/07 08:04:54;;;;;;;10.07;7.20;;;12.30;94.00;;;;;;10206143;29;20321;-84
2021/12/07 08:09:57;;;;;;;9.83;7.03;;;11.60;95.20;;;;;;10211618;29;20245;-84
2021/12/07 08:14:59;;;;;;;14.57;9.03;;;11.70;95.20;;;;;;10244177;28;20674;-84
2021/12/07 08:20:03;;;;;;;10.77;7.53;;;12.00;92.60;;;;;;10258523;28;20240;-84
2021/12/07 08:25:07;;;;;;;8.97;6.70;;;12.00;93.90;;;;;;10255851;28;20264;-84
2021/12/07 08:30:12;;;;;;;10.27;6.90;;;12.10;94.00;;;;;;10258543;28;20729;-84
2021/12/07 08:35:16;;;;;;;9.77;7.03;;;12.10;93.50;;;;;;10238470;28;20290;-84
2021/12/07 08:40:23;;;;;;;9.17;7.10;;;12.30;90.40;;;;;;10218576;28;20774;-83
2021/12/07 08:45:30;;;;;;;13.97;9.60;;;12.60;93.00;;;;;;10212186;29;20263;-84
2021/12/07 08:50:33;;;;;;;10.37;7.17;;;12.40;91.40;;;;;;10226241;29;20304;-83
2021/12/07 09:01:00;;;;;;;8.23;6.37;;;12.20;93.00;;;;;;10230843;28;20240;-84
2021/12/07 09:06:03;;;;;;;9.97;6.97;;;12.20;93.10;;;;;;10224373;29;20784;-83
2021/12/07 09:11:07;;;;;;;9.57;7.77;;;12.00;92.90;;;;;;10219331;29;20950;-83
2021/12/07 09:16:11;;;;;;;17.90;12.20;;;12.20;93.10;;;;;;10208051;29;20318;-83
2021/12/07 09:21:15;;;;;;;10.10;7.13;;;11.90;77.00;;;;;;10215955;29;20300;-82
2021/12/07 09:26:18;;;;;;;11.00;7.37;;;12.50;92.60;;;;;;10220810;29;20286;-82
2021/12/07 09:31:22;;;;;;;9.70;7.00;;;12.30;92.00;;;;;;10230812;28;20307;-82
2021/12/07 09:36:27;;;;;;;10.23;7.03;;;12.00;92.70;;;;;;10224798;29;20244;-82
2021/12/07 09:41:30;;;;;;;9.33;6.40;;;12.30;92.40;;;;;;10189445;29;20248;-82
2021/12/07 09:46:33;;;;;;;11.70;7.70;;;12.00;92.60;;;;;;10225080;28;20270;-82
2021/12/07 09:51:36;;;;;;;9.63;7.13;;;12.20;92.50;;;;;;10229278;29;20959;-81
2021/12/07 09:56:39;;;;;;;9.20;7.23;;;12.10;92.50;;;;;;10234581;29;20235;-80
2021/12/07 10:01:42;;;;;;;9.57;6.87;;;12.40;91.50;;;;;;10208916;29;20626;-81
2021/12/07 10:06:46;;;;;;;15.80;11.70;;;12.60;91.50;;;;;;10234478;28;20714;-82
2021/12/07 10:11:55;;;;;;;10.00;7.23;;;12.40;90.30;;;;;;10244057;28;20236;-81
2021/12/07 10:16:58;;;;;;;11.80;7.77;;;;;;;;;;10219074;29;20252;-81
2021/12/07 10:22:05;;;;;;;10.77;7.67;;;12.90;87.80;;;;;;10230477;28;20315;-82
2021/12/07 10:27:09;;;;;;;14.90;9.83;;;12.90;88.10;;;;;;10229363;28;20266;-82
2021/12/07 10:32:11;;;;;;;22.50;14.23;;;12.70;85.20;;;;;;10246009;29;20294;-82
2021/12/07 10:37:18;;;;;;;10.97;8.17;;;12.40;78.70;;;;;;10248233;29;20318;-88
2021/12/07 10:42:25;;;;;;;13.70;9.10;;;12.40;89.70;;;;;;10233225;29;20252;-88
2021/12/07 10:47:36;;;;;;;16.10;10.97;;;12.20;88.90;;;;;;10234192;29;20263;-88
2021/12/07 10:52:45;;;;;;;10.80;7.67;;;12.20;87.20;;;;;;10230880;29;20273;-89
2021/12/07 10:57:55;;;;;;;9.40;6.83;;;12.50;89.00;;;;;;10233940;29;20256;-86
2021/12/07 11:03:08;;;;;;;11.80;8.57;;;12.30;89.80;;;;;;10221692;29;20255;-88
2021/12/07 11:08:11;;;;;;;15.33;9.80;;;12.40;89.00;;;;;;10241837;29;20263;-87
2021/12/07 11:13:35;;;;;;;22.27;14.13;;;12.60;84.20;;;;;;10246664;28;20263;-87
2021/12/07 11:18:42;;;;;;;29.73;16.63;;;12.30;71.80;;;;;;10229918;29;20259;-81
2021/12/07 11:23:55;;;;;;;21.13;12.83;;;12.50;65.60;;;;;;10216314;29;20709;-82
2021/12/07 11:34:36;;;;;;;25.03;16.13;;;12.60;71.40;;;;;;10189263;29;20304;-82
2021/12/07 11:39:55;;;;;;;22.87;13.47;;;12.50;69.50;;;;;;10210274;29;20680;-82
2021/12/07 11:45:07;;;;;;;26.33;15.90;;;12.70;68.10;;;;;;10237562;28;20321;-81
2021/12/07 11:50:34;;;;;;;21.53;14.27;;;12.50;66.30;;;;;;10196843;28;20784;-82
2021/12/07 11:55:39;;;;;;;25.73;16.00;;;12.40;66.10;;;;;;10233022;29;20673;-82
2021/12/07 12:00:49;;;;;;;25.10;15.17;;;11.90;66.80;;;;;;10198827;28;20309;-81
2021/12/07 12:05:54;;;;;;;22.67;13.33;;;12.00;68.90;;;;;;10243753;28;20262;-86
2021/12/07 12:11:05;;;;;;;32.37;21.20;;;12.10;69.40;;;;;;10243500;29;20243;-87
2021/12/07 12:16:08;;;;;;;22.03;14.30;;;12.10;64.50;;;;;;10218744;29;20239;-87
2021/12/07 12:21:31;;;;;;;21.50;14.23;;;12.30;70.40;;;;;;10213115;28;20670;-87
2021/12/07 12:26:35;;;;;;;27.67;16.70;;;11.90;67.50;;;;;;10224506;29;20325;-87
2021/12/07 12:31:45;;;;;;;25.37;17.17;;;12.00;67.00;;;;;;10203069;28;20754;-84
2021/12/07 12:37:08;;;;;;;28.13;17.43;;;12.20;62.00;;;;;;9513991;29;10000689;-86
2021/12/07 12:42:17;;;;;;;25.90;15.40;;;12.40;61.70;;;;;;10186937;29;20239;-87
2021/12/07 12:47:25;;;;;;;29.50;17.10;;;12.30;62.00;;;;;;10220195;29;20319;-87
2021/12/07 12:52:45;;;;;;;26.23;16.40;;;12.20;63.70;;;;;;10191705;29;20268;-86
2021/12/07 12:57:51;;;;;;;31.30;17.87;;;11.70;63.20;;;;;;10232212;29;20776;-87
2021/12/07 13:02:54;;;;;;;26.93;16.37;;;11.80;63.70;;;;;;10219277;29;20802;-87
2021/12/07 13:08:23;;;;;;;26.70;15.23;;;12.20;65.50;;;;;;10257591;28;20724;-86
2021/12/07 13:13:34;;;;;;;24.67;15.37;;;12.00;64.00;;;;;;10199026;29;20378;-87
2021/12/07 13:18:40;;;;;;;20.67;13.77;;;12.30;68.80;;;;;;10213111;28;20843;-86
2021/12/07 13:23:57;;;;;;;24.80;14.90;;;12.10;69.30;;;;;;10231804;28;20743;-82
2021/12/07 13:29:18;;;;;;;24.87;13.77;;;12.00;71.00;;;;;;10216135;29;20334;-82
2021/12/07 13:34:34;;;;;;;20.37;13.23;;;12.20;71.80;;;;;;10216110;28;20285;-82
2021/12/07 13:39:49;;;;;;;22.87;14.73;;;12.40;72.20;;;;;;10222770;28;20346;-82
2021/12/07 13:45:05;;;;;;;19.60;12.67;;;12.50;72.30;;;;;;10235797;28;20395;-82
2021/12/07 13:50:16;;;;;;;19.03;12.23;;;12.00;72.70;;;;;;10230661;28;20908;-82
2021/12/07 13:55:22;;;;;;;25.67;16.43;;;12.20;73.60;;;;;;10235377;29;20239;-82
2021/12/07 14:00:28;;;;;;;34.10;21.37;;;12.10;67.80;;;;;;10237114;29;20640;-83
2021/12/07 14:05:36;;;;;;;25.70;16.47;;;11.70;60.80;;;;;;10237715;29;20238;-84
2021/12/07 14:10:51;;;;;;;19.10;12.50;;;11.50;72.30;;;;;;10247721;29;20323;-83
2021/12/07 14:15:53;;;;;;;21.07;12.77;;;12.00;76.60;;;;;;10244252;28;20300;-84
2021/12/07 14:20:59;;;;;;;17.33;11.27;;;11.80;76.90;;;;;;10220211;29;20661;-84
2021/12/07 14:26:12;;;;;;;21.00;14.73;;;12.30;76.60;;;;;;10245998;29;20315;-84
2021/12/07 14:31:46;;;;;;;19.27;12.13;;;12.20;76.90;;;;;;10205680;29;20260;-83
2021/12/07 14:36:54;;;;;;;28.43;17.73;;;12.60;76.20;;;;;;10246082;29;20272;-83
2021/12/07 14:42:04;;;;;;;20.10;12.57;;;12.60;76.30;;;;;;10233838;29;20251;-82
2021/12/07 14:47:08;;;;;;;14.63;10.97;;;12.70;76.70;;;;;;10227921;28;20314;-82
2021/12/07 14:52:15;;;;;;;19.00;14.10;;;12.60;76.90;;;;;;10247950;28;20263;-82
2021/12/07 14:57:20;;;;;;;23.70;14.33;;;12.60;77.30;;;;;;10249905;28;20266;-82
2021/12/07 15:02:25;;;;;;;28.40;19.87;;;7.80;93.80;;;;;;10239990;28;21036;-83
2021/12/07 15:07:33;;;;;;;37.80;24.97;;;12.00;78.90;;;;;;10243683;28;20253;-83
2021/12/07 15:12:41;;;;;;;42.97;26.40;;;12.20;70.40;;;;;;10254901;28;20317;-84
2021/12/07 15:17:44;;;;;;;40.87;27.07;;;12.30;64.50;;;;;;9899068;28;10000075;-84
2021/12/07 15:22:46;;;;;;;43.33;25.03;;;12.30;60.80;;;;;;10257817;28;20305;-82
2021/12/07 15:27:51;;;;;;;42.73;25.43;;;12.00;61.40;;;;;;10243983;28;20359;-83
2021/12/07 15:32:53;;;;;;;42.33;24.83;;;11.90;62.30;;;;;;10260338;28;20348;-83
2021/12/07 15:37:56;;;;;;;38.07;23.70;;;12.10;62.90;;;;;;10244128;28;20316;-83
2021/12/07 15:42:59;;;;;;;37.20;22.73;;;12.10;63.20;;;;;;10235996;28;20286;-81
2021/12/07 15:48:01;;;;;;;34.43;23.00;;;12.30;63.60;;;;;;10241068;28;20270;-83
2021/12/07 15:53:11;;;;;;;33.60;21.83;;;12.30;64.00;;;;;;10209723;28;20298;-82
2021/12/07 15:58:15;;;;;;;36.33;22.53;;;12.30;64.70;;;;;;10230234;28;20620;-84
2021/12/07 16:03:21;;;;;;;35.53;22.17;;;12.40;64.90;;;;;;10268390;28;20295;-83
2021/12/07 16:08:43;;;;;;;33.30;20.93;;;12.60;65.00;;;;;;10244651;28;20328;-83
2021/12/07 16:13:54;;;;;;;34.57;21.63;;;12.60;65.50;;;;;;10258725;28;20230;-83
2021/12/07 16:18:57;;;;;;;31.80;20.40;;;12.60;65.90;;;;;;10238971;28;20265;-83
2021/12/07 16:24:00;;;;;;;34.90;21.60;;;12.60;66.20;;;;;;10260021;28;20470;-84
2021/12/07 16:29:05;;;;;;;44.17;28.40;;;12.60;66.40;;;;;;10234989;28;20236;-84
2021/12/07 16:34:08;;;;;;;37.27;21.60;;;12.60;65.30;;;;;;10240531;29;20565;-83
2021/12/07 16:39:11;;;;;;;36.70;21.63;;;12.60;66.90;;;;;;10244589;29;20232;-83
2021/12/07 16:44:13;;;;;;;35.17;20.60;;;12.60;67.40;;;;;;10242994;29;20244;-83
2021/12/07 16:49:16;;;;;;;33.57;19.70;;;12.70;67.50;;;;;;10234839;28;20340;-82
2021/12/07 16:54:19;;;;;;;30.93;20.57;;;12.80;67.70;;;;;;10266281;28;20246;-82
2021/12/07 16:59:21;;;;;;;35.43;21.17;;;12.80;67.70;;;;;;10234243;29;20264;-82
2021/12/07 17:04:24;;;;;;;33.23;20.80;;;12.60;68.10;;;;;;10238760;29;20739;-82
2021/12/07 17:09:27;;;;;;;28.80;18.27;;;12.70;68.40;;;;;;10265570;28;20259;-82
2021/12/07 17:14:31;;;;;;;38.87;21.87;;;12.70;68.60;;;;;;10229741;28;20758;-82
2021/12/07 17:19:34;;;;;;;32.77;18.80;;;11.70;68.00;;;;;;10214531;29;20326;-83
2021/12/07 17:24:36;;;;;;;31.07;18.67;;;12.70;71.30;;;;;;10260018;28;20244;-82
2021/12/07 17:29:40;;;;;;;30.23;18.40;;;12.80;70.20;;;;;;10236196;28;20798;-83
2021/12/07 17:34:43;;;;;;;31.47;19.73;;;12.80;70.10;;;;;;10236983;29;20242;-83
2021/12/07 17:39:49;;;;;;;28.97;20.10;;;12.70;70.30;;;;;;10233480;29;20303;-83
2021/12/07 17:44:52;;;;;;;32.20;20.20;;;12.70;70.40;;;;;;10220853;29;20266;-83
2021/12/07 17:49:55;;;;;;;33.73;20.07;;;12.70;70.40;;;;;;10234328;29;20665;-83
2021/12/07 17:54:57;;;;;;;37.00;22.13;;;12.80;70.20;;;;;;10223361;29;20854;-83
2021/12/07 18:00:02;;;;;;;29.80;18.80;;;12.80;67.90;;;;;;10226688;29;20239;-83
2021/12/07 18:05:14;;;;;;;29.90;18.23;;;12.70;70.60;;;;;;10238576;29;20240;-81
2021/12/07 18:10:20;;;;;;;33.67;19.83;;;12.80;70.00;;;;;;10245474;29;20293;-84
2021/12/07 18:15:23;;;;;;;31.63;19.53;;;12.80;69.80;;;;;;10214240;29;20669;-83
2021/12/07 18:20:30;;;;;;;30.93;19.13;;;12.80;69.80;;;;;;10223943;29;20228;-82
2021/12/07 18:25:33;;;;;;;26.80;17.40;;;12.80;70.00;;;;;;10258270;29;20753;-82
2021/12/07 18:30:40;;;;;;;26.33;16.97;;;12.70;70.10;;;;;;10242788;29;20303;-83
2021/12/07 18:35:44;;;;;;;28.10;17.93;;;12.70;70.40;;;;;;10219224;28;20354;-82
2021/12/07 18:40:51;;;;;;;31.53;18.57;;;12.80;70.10;;;;;;9658355;29;10001543;-82
2021/12/07 18:45:54;;;;;;;25.77;17.63;;;12.60;70.40;;;;;;10219090;29;20344;-82
2021/12/07 18:50:57;;;;;;;26.40;16.70;;;12.70;70.30;;;;;;10223158;29;20319;-81
2021/12/07 18:56:00;;;;;;;26.43;17.87;;;12.70;70.40;;;;;;10226474;28;20314;-82
2021/12/07 19:01:07;;;;;;;24.40;16.13;;;12.80;70.20;;;;;;10220433;29;20294;-82
2021/12/07 19:06:11;;;;;;;26.33;17.00;;;12.50;70.70;;;;;;10232532;29;20310;-82
2021/12/07 19:11:16;;;;;;;24.83;15.57;;;12.60;70.60;;;;;;10214812;28;20245;-83
2021/12/07 19:16:19;;;;;;;25.27;16.60;;;12.70;70.40;;;;;;10243481;28;20243;-82
2021/12/07 19:21:21;;;;;;;20.07;14.80;;;12.80;70.00;;;;;;10245800;29;20279;-82
2021/12/07 19:26:24;;;;;;;27.40;16.70;;;12.80;69.90;;;;;;10249562;29;20765;-84
2021/12/07 19:31:27;;;;;;;30.47;17.10;;;12.40;71.00;;;;;;10222614;28;20774;-83
2021/12/07 19:36:29;;;;;;;23.93;16.10;;;12.70;70.40;;;;;;10254029;28;20256;-82
2021/12/07 19:41:32;;;;;;;26.53;15.90;;;12.70;70.40;;;;;;10240028;29;20244;-82
2021/12/07 19:46:35;;;;;;;26.60;16.53;;;12.70;70.40;;;;;;10235962;28;20254;-82
2021/12/07 19:51:38;;;;;;;26.40;17.07;;;12.60;70.30;;;;;;10248462;28;20715;-82
2021/12/07 19:56:44;;;;;;;27.17;16.07;;;12.70;70.10;;;;;;10249536;28;20241;-82
2021/12/07 20:01:59;;;;;;;25.67;16.10;;;12.80;69.70;;;;;;10267529;28;20730;-82
2021/12/07 20:07:05;;;;;;;28.47;16.63;;;12.70;69.80;;;;;;10234133;29;20288;-82
2021/12/07 20:12:08;;;;;;;27.10;17.10;;;12.70;70.00;;;;;;9915533;28;10000066;-82
2021/12/07 20:17:15;;;;;;;26.80;16.20;;;12.70;70.00;;;;;;10201562;29;20308;-82
2021/12/07 20:22:17;;;;;;;26.43;16.47;;;12.60;70.20;;;;;;10214931;29;20320;-81
2021/12/07 20:27:20;;;;;;;27.47;16.57;;;12.60;70.80;;;;;;10226956;29;20666;-81
2021/12/07 20:32:23;;;;;;;30.93;16.77;;;12.40;69.60;;;;;;10231280;29;20350;-82
2021/12/07 20:37:25;;;;;;;36.27;19.63;;;12.40;70.30;;;;;;10235365;29;20907;-81
2021/12/07 20:42:28;;;;;;;26.90;15.67;;;12.40;70.30;;;;;;10232421;28;20965;-81
2021/12/07 20:47:30;;;;;;;30.07;16.03;;;12.60;70.30;;;;;;10205517;29;20327;-82
2021/12/07 20:52:33;;;;;;;29.53;17.10;;;12.70;69.40;;;;;;10201188;29;20207;-82
2021/12/07 20:57:36;;;;;;;27.23;16.10;;;12.70;69.50;;;;;;10197322;29;20287;-81
2021/12/07 21:02:40;;;;;;;29.30;15.77;;;12.80;69.30;;;;;;10222057;29;20212;-82
2021/12/07 21:07:42;;;;;;;24.97;15.13;;;12.70;68.80;;;;;;10230539;29;20227;-81
2021/12/07 21:12:48;;;;;;;30.80;16.23;;;12.70;69.90;;;;;;10215127;28;20378;-81
2021/12/07 21:17:53;;;;;;;34.00;19.73;;;12.70;69.30;;;;;;10266887;28;20213;-82
2021/12/07 21:22:56;;;;;;;28.63;16.73;;;12.50;67.60;;;;;;10255839;28;20259;-81
2021/12/07 21:27:59;;;;;;;27.63;16.40;;;12.60;69.80;;;;;;10261015;28;20268;-82
2021/12/07 21:33:03;;;;;;;26.23;15.60;;;12.60;69.60;;;;;;10258084;28;20271;-83
2021/12/07 21:38:07;;;;;;;29.27;17.30;;;12.70;69.40;;;;;;10247591;28;20260;-82
2021/12/07 21:43:10;;;;;;;32.20;19.27;;;12.30;70.40;;;;;;10274203;28;20252;-82
2021/12/07 21:48:13;;;;;;;27.57;15.73;;;12.20;65.80;;;;;;10262705;28;20649;-82
2021/12/07 21:53:15;;;;;;;25.73;15.23;;;12.50;70.10;;;;;;10240626;28;20216;-82
2021/12/07 21:58:18;;;;;;;26.40;15.67;;;12.50;69.80;;;;;;10273613;28;20212;-83
2021/12/07 22:03:21;;;;;;;20.93;14.80;;;12.50;69.70;;;;;;10256677;28;20230;-82
2021/12/07 22:08:24;;;;;;;23.27;14.07;;;12.50;69.40;;;;;;10251605;29;20265;-82
2021/12/07 22:13:27;;;;;;;24.30;14.60;;;12.50;69.60;;;;;;10230244;29;20682;-81
2021/12/07 22:18:30;;;;;;;23.57;15.03;;;12.60;69.30;;;;;;10229871;29;20256;-81
2021/12/07 22:23:33;;;;;;;19.83;14.17;;;12.60;69.40;;;;;;10230243;29;20257;-81
2021/12/07 22:28:36;;;;;;;24.70;15.07;;;12.80;69.00;;;;;;10245308;29;20793;-81
2021/12/07 22:33:39;;;;;;;21.27;13.97;;;12.70;68.70;;;;;;10245977;29;20275;-81
2021/12/07 22:38:42;;;;;;;26.23;15.23;;;12.50;68.80;;;;;;10223718;29;20610;-81
2021/12/07 22:43:45;;;;;;;20.30;14.03;;;12.40;69.80;;;;;;10241132;29;21047;-81
2021/12/07 22:48:54;;;;;;;26.30;16.30;;;12.50;69.50;;;;;;10217413;29;20324;-81
2021/12/07 22:53:56;;;;;;;20.67;13.13;;;12.40;68.40;;;;;;10237391;29;20649;-81
2021/12/07 22:58:59;;;;;;;21.90;15.00;;;12.50;69.20;;;;;;10245393;29;20347;-82
2021/12/07 23:04:02;;;;;;;24.23;14.37;;;12.60;68.90;;;;;;10227998;29;20240;-81
2021/12/07 23:09:06;;;;;;;23.77;14.57;;;12.40;69.30;;;;;;10221509;28;20332;-81
2021/12/07 23:14:12;;;;;;;19.07;12.93;;;12.30;69.60;;;;;;10243878;29;20381;-81
2021/12/07 23:19:15;;;;;;;22.80;13.80;;;12.60;69.00;;;;;;10223646;29;20314;-82
2021/12/07 23:24:19;;;;;;;20.10;13.80;;;12.60;68.60;;;;;;10251913;29;20270;-82
2021/12/07 23:29:25;;;;;;;21.07;13.60;;;12.70;68.30;;;;;;10219097;28;20354;-82
2021/12/07 23:34:28;;;;;;;30.83;19.40;;;12.60;68.00;;;;;;10228226;29;20331;-82
2021/12/07 23:39:31;;;;;;;26.90;15.97;;;12.40;65.50;;;;;;10221983;29;20324;-81
2021/12/07 23:44:34;;;;;;;20.03;12.70;;;12.40;67.40;;;;;;10229039;29;20686;-82
2021/12/07 23:49:37;;;;;;;20.23;12.67;;;12.50;68.40;;;;;;10229285;29;20303;-81
2021/12/07 23:54:42;;;;;;;18.93;12.37;;;12.40;68.70;;;;;;10212645;29;20244;-81
2021/12/07 23:59:46;;;;;;;23.00;12.93;;;12.60;62.50;;;;;;10201229;29;20315;-81
